sensor_id;sensor_type;location;lat;lon;timestamp;P1;durP1;ratioP1;P2;durP2;ratioP2
29120;SDS011;16191;49.548;8.658;2023-03-19T00:01:49;5.25;;;1.88;;
29120;SDS011;16191;49.548;8.658;2023-03-19T00:04:15;5.32;;;2.45;;
29120;SDS011;16191;49.548;8.658;2023-03-19T00:06:42;6.93;;;1.95;;
29120;SDS011;16191;49.548;8.658;2023-03-19T00:09:10;5.35;;;1.88;;
29120;SDS011;16191;49.548;8.658;2023-03-19T00:11:37;3.67;;;1.60;;
29120;SDS011;16191;49.548;8.658;2023-03-19T00:14:04;4.78;;;1.80;;
29120;SDS011;16191;49.548;8.658;2023-03-19T00:16:31;3.75;;;1.90;;
29120;SDS011;16191;49.548;8.658;2023-03-19T00:18:58;8.30;;;2.10;;
29120;SDS011;16191;49.548;8.658;2023-03-19T00:21:25;3.38;;;1.75;;
29120;SDS011;16191;49.548;8.658;2023-03-19T00:23:52;5.18;;;2.00;;
29120;SDS011;16191;49.548;8.658;2023-03-19T00:26:19;8.95;;;1.77;;
29120;SDS011;16191;49.548;8.658;2023-03-19T00:28:46;5.20;;;2.15;;
29120;SDS011;16191;49.548;8.658;2023-03-19T00:31:13;4.63;;;2.10;;
29120;SDS011;16191;49.548;8.658;2023-03-19T00:33:41;8.00;;;2.67;;
29120;SDS011;16191;49.548;8.658;2023-03-19T00:36:09;4.35;;;2.50;;
29120;SDS011;16191;49.548;8.658;2023-03-19T00:38:36;6.05;;;2.83;;
29120;SDS011;16191;49.548;8.658;2023-03-19T00:41:03;6.35;;;2.50;;
29120;SDS011;16191;49.548;8.658;2023-03-19T00:43:31;4.50;;;2.15;;
29120;SDS011;16191;49.548;8.658;2023-03-19T00:45:57;7.53;;;2.45;;
29120;SDS011;16191;49.548;8.658;2023-03-19T00:48:24;6.80;;;2.22;;
29120;SDS011;16191;49.548;8.658;2023-03-19T00:50:51;5.80;;;1.95;;
29120;SDS011;16191;49.548;8.658;2023-03-19T00:53:18;6.68;;;1.70;;
29120;SDS011;16191;49.548;8.658;2023-03-19T00:55:45;4.95;;;2.42;;
29120;SDS011;16191;49.548;8.658;2023-03-19T00:58:12;9.13;;;2.47;;
29120;SDS011;16191;49.548;8.658;2023-03-19T01:00:39;7.85;;;2.88;;
29120;SDS011;16191;49.548;8.658;2023-03-19T01:03:07;12.02;;;2.30;;
29120;SDS011;16191;49.548;8.658;2023-03-19T01:05:34;4.25;;;2.17;;
29120;SDS011;16191;49.548;8.658;2023-03-19T01:08:01;6.35;;;2.05;;
29120;SDS011;16191;49.548;8.658;2023-03-19T01:10:28;5.72;;;2.33;;
29120;SDS011;16191;49.548;8.658;2023-03-19T01:12:55;6.65;;;3.25;;
29120;SDS011;16191;49.548;8.658;2023-03-19T01:15:22;7.38;;;3.25;;
29120;SDS011;16191;49.548;8.658;2023-03-19T01:17:48;11.70;;;3.20;;
29120;SDS011;16191;49.548;8.658;2023-03-19T01:20:15;7.35;;;2.45;;
29120;SDS011;16191;49.548;8.658;2023-03-19T01:22:44;5.90;;;2.40;;
29120;SDS011;16191;49.548;8.658;2023-03-19T01:25:11;9.10;;;2.88;;
29120;SDS011;16191;49.548;8.658;2023-03-19T01:27:46;4.07;;;2.22;;
29120;SDS011;16191;49.548;8.658;2023-03-19T01:30:13;8.85;;;2.60;;
29120;SDS011;16191;49.548;8.658;2023-03-19T01:33:12;4.93;;;2.20;;
29120;SDS011;16191;49.548;8.658;2023-03-19T01:35:52;5.13;;;2.00;;
29120;SDS011;16191;49.548;8.658;2023-03-19T01:38:21;11.25;;;2.30;;
29120;SDS011;16191;49.548;8.658;2023-03-19T01:40:48;3.90;;;1.95;;
29120;SDS011;16191;49.548;8.658;2023-03-19T01:43:17;3.95;;;1.98;;
29120;SDS011;16191;49.548;8.658;2023-03-19T01:45:59;4.25;;;1.95;;
29120;SDS011;16191;49.548;8.658;2023-03-19T01:48:50;5.00;;;2.03;;
29120;SDS011;16191;49.548;8.658;2023-03-19T01:51:22;8.70;;;2.40;;
29120;SDS011;16191;49.548;8.658;2023-03-19T01:54:09;4.32;;;2.17;;
29120;SDS011;16191;49.548;8.658;2023-03-19T01:56:56;5.93;;;2.47;;
29120;SDS011;16191;49.548;8.658;2023-03-19T02:02:42;4.82;;;2.45;;
29120;SDS011;16191;49.548;8.658;2023-03-19T02:05:34;6.50;;;2.30;;
29120;SDS011;16191;49.548;8.658;2023-03-19T02:08:06;7.40;;;2.60;;
29120;SDS011;16191;49.548;8.658;2023-03-19T02:10:37;5.65;;;2.17;;
29120;SDS011;16191;49.548;8.658;2023-03-19T02:13:05;5.72;;;1.90;;
29120;SDS011;16191;49.548;8.658;2023-03-19T02:15:32;4.68;;;2.25;;
29120;SDS011;16191;49.548;8.658;2023-03-19T02:17:59;4.57;;;2.28;;
29120;SDS011;16191;49.548;8.658;2023-03-19T02:20:30;5.95;;;1.98;;
29120;SDS011;16191;49.548;8.658;2023-03-19T02:23:13;3.92;;;2.05;;
29120;SDS011;16191;49.548;8.658;2023-03-19T02:26:02;5.68;;;2.22;;
29120;SDS011;16191;49.548;8.658;2023-03-19T02:28:52;7.10;;;2.50;;
29120;SDS011;16191;49.548;8.658;2023-03-19T02:31:50;6.03;;;2.47;;
29120;SDS011;16191;49.548;8.658;2023-03-19T02:34:38;8.10;;;2.60;;
29120;SDS011;16191;49.548;8.658;2023-03-19T02:37:27;6.25;;;2.75;;
29120;SDS011;16191;49.548;8.658;2023-03-19T02:40:20;8.15;;;3.20;;
29120;SDS011;16191;49.548;8.658;2023-03-19T02:45:36;9.43;;;2.60;;
29120;SDS011;16191;49.548;8.658;2023-03-19T02:48:03;7.70;;;2.10;;
29120;SDS011;16191;49.548;8.658;2023-03-19T02:50:29;2.97;;;1.98;;
29120;SDS011;16191;49.548;8.658;2023-03-19T02:52:56;3.40;;;1.52;;
29120;SDS011;16191;49.548;8.658;2023-03-19T02:55:23;7.15;;;2.03;;
29120;SDS011;16191;49.548;8.658;2023-03-19T02:57:49;6.47;;;2.20;;
29120;SDS011;16191;49.548;8.658;2023-03-19T03:00:16;4.60;;;2.00;;
29120;SDS011;16191;49.548;8.658;2023-03-19T03:02:44;5.28;;;1.80;;
29120;SDS011;16191;49.548;8.658;2023-03-19T03:05:10;6.93;;;2.38;;
29120;SDS011;16191;49.548;8.658;2023-03-19T03:07:39;7.78;;;2.15;;
29120;SDS011;16191;49.548;8.658;2023-03-19T03:10:06;5.75;;;2.78;;
29120;SDS011;16191;49.548;8.658;2023-03-19T03:12:33;3.28;;;2.00;;
29120;SDS011;16191;49.548;8.658;2023-03-19T03:15:00;6.03;;;2.00;;
29120;SDS011;16191;49.548;8.658;2023-03-19T03:17:27;6.70;;;2.33;;
29120;SDS011;16191;49.548;8.658;2023-03-19T03:19:55;4.70;;;2.17;;
29120;SDS011;16191;49.548;8.658;2023-03-19T03:22:22;4.32;;;2.05;;
29120;SDS011;16191;49.548;8.658;2023-03-19T03:24:48;4.53;;;1.88;;
29120;SDS011;16191;49.548;8.658;2023-03-19T03:27:15;3.75;;;2.00;;
29120;SDS011;16191;49.548;8.658;2023-03-19T03:29:42;6.45;;;2.17;;
29120;SDS011;16191;49.548;8.658;2023-03-19T03:32:09;4.72;;;2.00;;
29120;SDS011;16191;49.548;8.658;2023-03-19T03:34:35;7.50;;;2.13;;
29120;SDS011;16191;49.548;8.658;2023-03-19T03:37:02;6.45;;;2.10;;
29120;SDS011;16191;49.548;8.658;2023-03-19T03:39:29;8.00;;;1.77;;
29120;SDS011;16191;49.548;8.658;2023-03-19T03:41:56;4.07;;;2.00;;
29120;SDS011;16191;49.548;8.658;2023-03-19T03:44:22;4.53;;;2.05;;
29120;SDS011;16191;49.548;8.658;2023-03-19T03:46:49;2.28;;;1.50;;
29120;SDS011;16191;49.548;8.658;2023-03-19T03:49:16;2.40;;;1.40;;
29120;SDS011;16191;49.548;8.658;2023-03-19T03:51:42;7.15;;;1.85;;
29120;SDS011;16191;49.548;8.658;2023-03-19T03:54:09;6.85;;;2.22;;
29120;SDS011;16191;49.548;8.658;2023-03-19T03:56:36;6.18;;;1.70;;
29120;SDS011;16191;49.548;8.658;2023-03-19T03:59:02;3.03;;;1.65;;
29120;SDS011;16191;49.548;8.658;2023-03-19T04:01:29;6.57;;;2.50;;
29120;SDS011;16191;49.548;8.658;2023-03-19T04:03:56;3.42;;;1.80;;
29120;SDS011;16191;49.548;8.658;2023-03-19T04:06:23;6.18;;;1.98;;
29120;SDS011;16191;49.548;8.658;2023-03-19T04:09:29;4.07;;;1.90;;
29120;SDS011;16191;49.548;8.658;2023-03-19T04:11:57;6.10;;;2.42;;
29120;SDS011;16191;49.548;8.658;2023-03-19T04:14:23;4.63;;;1.92;;
29120;SDS011;16191;49.548;8.658;2023-03-19T04:16:50;6.47;;;2.40;;
29120;SDS011;16191;49.548;8.658;2023-03-19T04:19:17;6.00;;;2.58;;
29120;SDS011;16191;49.548;8.658;2023-03-19T04:21:45;8.02;;;2.33;;
29120;SDS011;16191;49.548;8.658;2023-03-19T04:24:13;6.03;;;2.17;;
29120;SDS011;16191;49.548;8.658;2023-03-19T04:26:39;4.45;;;2.47;;
29120;SDS011;16191;49.548;8.658;2023-03-19T04:29:06;5.63;;;2.80;;
29120;SDS011;16191;49.548;8.658;2023-03-19T04:31:36;7.72;;;3.03;;
29120;SDS011;16191;49.548;8.658;2023-03-19T04:34:03;6.20;;;3.13;;
29120;SDS011;16191;49.548;8.658;2023-03-19T04:36:31;8.10;;;3.33;;
29120;SDS011;16191;49.548;8.658;2023-03-19T04:38:58;6.10;;;3.08;;
29120;SDS011;16191;49.548;8.658;2023-03-19T04:41:25;8.25;;;3.88;;
29120;SDS011;16191;49.548;8.658;2023-03-19T04:44:03;7.55;;;3.15;;
29120;SDS011;16191;49.548;8.658;2023-03-19T04:46:31;8.70;;;3.65;;
29120;SDS011;16191;49.548;8.658;2023-03-19T04:48:57;5.65;;;3.10;;
29120;SDS011;16191;49.548;8.658;2023-03-19T04:51:26;7.88;;;3.22;;
29120;SDS011;16191;49.548;8.658;2023-03-19T04:53:53;4.90;;;2.78;;
29120;SDS011;16191;49.548;8.658;2023-03-19T04:56:20;8.68;;;3.22;;
29120;SDS011;16191;49.548;8.658;2023-03-19T04:58:47;6.30;;;3.00;;
29120;SDS011;16191;49.548;8.658;2023-03-19T05:01:14;7.32;;;3.08;;
29120;SDS011;16191;49.548;8.658;2023-03-19T05:03:56;8.63;;;3.05;;
29120;SDS011;16191;49.548;8.658;2023-03-19T05:06:23;9.77;;;2.75;;
29120;SDS011;16191;49.548;8.658;2023-03-19T05:08:50;8.68;;;3.22;;
29120;SDS011;16191;49.548;8.658;2023-03-19T05:11:18;6.65;;;3.03;;
29120;SDS011;16191;49.548;8.658;2023-03-19T05:14:01;5.80;;;3.05;;
29120;SDS011;16191;49.548;8.658;2023-03-19T05:16:36;9.40;;;3.75;;
29120;SDS011;16191;49.548;8.658;2023-03-19T05:19:04;9.32;;;3.63;;
29120;SDS011;16191;49.548;8.658;2023-03-19T05:21:31;6.38;;;2.90;;
29120;SDS011;16191;49.548;8.658;2023-03-19T05:23:58;7.32;;;4.00;;
29120;SDS011;16191;49.548;8.658;2023-03-19T05:26:26;5.82;;;2.78;;
29120;SDS011;16191;49.548;8.658;2023-03-19T05:29:11;6.80;;;3.10;;
29120;SDS011;16191;49.548;8.658;2023-03-19T05:31:54;5.70;;;3.05;;
29120;SDS011;16191;49.548;8.658;2023-03-19T05:34:21;10.13;;;3.42;;
29120;SDS011;16191;49.548;8.658;2023-03-19T05:36:47;7.18;;;2.67;;
29120;SDS011;16191;49.548;8.658;2023-03-19T05:39:17;5.15;;;3.30;;
29120;SDS011;16191;49.548;8.658;2023-03-19T05:41:44;8.10;;;2.88;;
29120;SDS011;16191;49.548;8.658;2023-03-19T05:44:15;7.05;;;3.47;;
29120;SDS011;16191;49.548;8.658;2023-03-19T05:47:04;9.35;;;3.10;;
29120;SDS011;16191;49.548;8.658;2023-03-19T05:49:34;4.38;;;2.90;;
29120;SDS011;16191;49.548;8.658;2023-03-19T05:52:02;6.32;;;2.83;;
29120;SDS011;16191;49.548;8.658;2023-03-19T05:54:29;8.18;;;3.05;;
29120;SDS011;16191;49.548;8.658;2023-03-19T05:57:05;11.35;;;3.50;;
29120;SDS011;16191;49.548;8.658;2023-03-19T06:00:05;6.55;;;3.13;;
29120;SDS011;16191;49.548;8.658;2023-03-19T06:02:33;9.20;;;3.30;;
29120;SDS011;16191;49.548;8.658;2023-03-19T06:05:16;9.02;;;2.75;;
29120;SDS011;16191;49.548;8.658;2023-03-19T06:07:43;5.57;;;2.97;;
29120;SDS011;16191;49.548;8.658;2023-03-19T06:10:20;6.18;;;3.17;;
29120;SDS011;16191;49.548;8.658;2023-03-19T06:12:51;7.55;;;2.80;;
29120;SDS011;16191;49.548;8.658;2023-03-19T06:15:36;6.15;;;2.90;;
29120;SDS011;16191;49.548;8.658;2023-03-19T06:18:15;7.15;;;2.90;;
29120;SDS011;16191;49.548;8.658;2023-03-19T06:20:45;7.47;;;3.22;;
29120;SDS011;16191;49.548;8.658;2023-03-19T06:23:13;6.55;;;2.90;;
29120;SDS011;16191;49.548;8.658;2023-03-19T06:25:41;10.27;;;3.50;;
29120;SDS011;16191;49.548;8.658;2023-03-19T06:28:08;5.57;;;2.88;;
29120;SDS011;16191;49.548;8.658;2023-03-19T06:30:38;6.72;;;3.42;;
29120;SDS011;16191;49.548;8.658;2023-03-19T06:33:24;10.40;;;3.08;;
29120;SDS011;16191;49.548;8.658;2023-03-19T06:35:53;8.10;;;2.97;;
29120;SDS011;16191;49.548;8.658;2023-03-19T06:38:20;9.02;;;3.20;;
29120;SDS011;16191;49.548;8.658;2023-03-19T06:40:46;5.82;;;3.10;;
29120;SDS011;16191;49.548;8.658;2023-03-19T06:43:13;5.32;;;2.83;;
29120;SDS011;16191;49.548;8.658;2023-03-19T06:45:40;9.10;;;2.83;;
29120;SDS011;16191;49.548;8.658;2023-03-19T06:48:07;9.95;;;3.20;;
29120;SDS011;16191;49.548;8.658;2023-03-19T06:50:33;7.80;;;3.17;;
29120;SDS011;16191;49.548;8.658;2023-03-19T06:53:00;8.88;;;3.15;;
29120;SDS011;16191;49.548;8.658;2023-03-19T06:55:27;7.38;;;3.00;;
29120;SDS011;16191;49.548;8.658;2023-03-19T06:57:56;6.85;;;2.70;;
29120;SDS011;16191;49.548;8.658;2023-03-19T07:00:22;5.57;;;2.97;;
29120;SDS011;16191;49.548;8.658;2023-03-19T07:02:49;4.43;;;2.83;;
29120;SDS011;16191;49.548;8.658;2023-03-19T07:05:16;4.93;;;2.60;;
29120;SDS011;16191;49.548;8.658;2023-03-19T07:07:43;12.10;;;3.35;;
29120;SDS011;16191;49.548;8.658;2023-03-19T07:10:10;6.07;;;3.10;;
29120;SDS011;16191;49.548;8.658;2023-03-19T07:12:36;8.95;;;2.67;;
29120;SDS011;16191;49.548;8.658;2023-03-19T07:15:03;5.82;;;3.03;;
29120;SDS011;16191;49.548;8.658;2023-03-19T07:17:30;9.35;;;3.65;;
29120;SDS011;16191;49.548;8.658;2023-03-19T07:19:56;5.47;;;2.72;;
29120;SDS011;16191;49.548;8.658;2023-03-19T07:22:23;5.43;;;2.95;;
29120;SDS011;16191;49.548;8.658;2023-03-19T07:24:50;5.97;;;2.80;;
29120;SDS011;16191;49.548;8.658;2023-03-19T07:27:16;6.78;;;2.80;;
29120;SDS011;16191;49.548;8.658;2023-03-19T07:29:43;7.95;;;2.75;;
29120;SDS011;16191;49.548;8.658;2023-03-19T07:32:10;4.78;;;2.33;;
29120;SDS011;16191;49.548;8.658;2023-03-19T07:34:36;5.55;;;2.70;;
29120;SDS011;16191;49.548;8.658;2023-03-19T07:37:03;7.15;;;2.40;;
29120;SDS011;16191;49.548;8.658;2023-03-19T07:39:30;11.48;;;2.97;;
29120;SDS011;16191;49.548;8.658;2023-03-19T07:41:57;8.73;;;3.00;;
29120;SDS011;16191;49.548;8.658;2023-03-19T07:44:23;7.38;;;2.90;;
29120;SDS011;16191;49.548;8.658;2023-03-19T07:46:50;5.60;;;2.45;;
29120;SDS011;16191;49.548;8.658;2023-03-19T07:49:16;10.75;;;2.70;;
29120;SDS011;16191;49.548;8.658;2023-03-19T07:51:43;8.05;;;2.90;;
29120;SDS011;16191;49.548;8.658;2023-03-19T07:54:09;5.57;;;2.83;;
29120;SDS011;16191;49.548;8.658;2023-03-19T07:56:36;6.50;;;2.30;;
29120;SDS011;16191;49.548;8.658;2023-03-19T07:59:02;7.68;;;2.53;;
29120;SDS011;16191;49.548;8.658;2023-03-19T08:01:29;9.02;;;2.55;;
29120;SDS011;16191;49.548;8.658;2023-03-19T08:03:56;8.80;;;3.13;;
29120;SDS011;16191;49.548;8.658;2023-03-19T08:06:22;4.60;;;2.85;;
29120;SDS011;16191;49.548;8.658;2023-03-19T08:08:49;5.05;;;2.83;;
29120;SDS011;16191;49.548;8.658;2023-03-19T08:11:16;8.15;;;2.75;;
29120;SDS011;16191;49.548;8.658;2023-03-19T08:13:43;7.72;;;2.40;;
29120;SDS011;16191;49.548;8.658;2023-03-19T08:16:09;6.05;;;2.70;;
29120;SDS011;16191;49.548;8.658;2023-03-19T08:18:36;6.53;;;2.28;;
29120;SDS011;16191;49.548;8.658;2023-03-19T08:21:03;6.82;;;2.75;;
29120;SDS011;16191;49.548;8.658;2023-03-19T08:23:30;5.55;;;2.70;;
29120;SDS011;16191;49.548;8.658;2023-03-19T08:25:57;9.55;;;2.75;;
29120;SDS011;16191;49.548;8.658;2023-03-19T08:28:23;7.07;;;2.58;;
29120;SDS011;16191;49.548;8.658;2023-03-19T08:30:50;5.90;;;2.85;;
29120;SDS011;16191;49.548;8.658;2023-03-19T08:33:17;5.93;;;2.70;;
29120;SDS011;16191;49.548;8.658;2023-03-19T08:35:43;5.95;;;2.67;;
29120;SDS011;16191;49.548;8.658;2023-03-19T08:38:10;8.85;;;2.80;;
29120;SDS011;16191;49.548;8.658;2023-03-19T08:40:37;5.95;;;2.83;;
29120;SDS011;16191;49.548;8.658;2023-03-19T08:43:03;6.13;;;2.50;;
29120;SDS011;16191;49.548;8.658;2023-03-19T08:45:30;6.50;;;2.58;;
29120;SDS011;16191;49.548;8.658;2023-03-19T08:47:57;16.38;;;2.90;;
29120;SDS011;16191;49.548;8.658;2023-03-19T08:50:23;7.30;;;2.45;;
29120;SDS011;16191;49.548;8.658;2023-03-19T08:52:50;8.55;;;2.70;;
29120;SDS011;16191;49.548;8.658;2023-03-19T08:55:16;4.20;;;2.30;;
29120;SDS011;16191;49.548;8.658;2023-03-19T08:57:43;4.72;;;2.33;;
29120;SDS011;16191;49.548;8.658;2023-03-19T09:00:10;6.00;;;2.42;;
29120;SDS011;16191;49.548;8.658;2023-03-19T09:02:37;7.95;;;2.20;;
29120;SDS011;16191;49.548;8.658;2023-03-19T09:05:05;6.82;;;2.50;;
29120;SDS011;16191;49.548;8.658;2023-03-19T09:07:32;6.70;;;2.65;;
29120;SDS011;16191;49.548;8.658;2023-03-19T09:09:59;7.93;;;2.58;;
29120;SDS011;16191;49.548;8.658;2023-03-19T09:12:26;5.95;;;2.40;;
29120;SDS011;16191;49.548;8.658;2023-03-19T09:14:52;6.57;;;2.20;;
29120;SDS011;16191;49.548;8.658;2023-03-19T09:17:19;4.47;;;2.08;;
29120;SDS011;16191;49.548;8.658;2023-03-19T09:19:45;4.43;;;2.22;;
29120;SDS011;16191;49.548;8.658;2023-03-19T09:22:12;5.05;;;2.20;;
29120;SDS011;16191;49.548;8.658;2023-03-19T09:24:38;9.45;;;2.17;;
29120;SDS011;16191;49.548;8.658;2023-03-19T09:27:06;6.80;;;2.10;;
29120;SDS011;16191;49.548;8.658;2023-03-19T09:29:32;4.00;;;2.17;;
29120;SDS011;16191;49.548;8.658;2023-03-19T09:31:59;7.35;;;2.22;;
29120;SDS011;16191;49.548;8.658;2023-03-19T09:34:26;7.15;;;2.40;;
29120;SDS011;16191;49.548;8.658;2023-03-19T09:36:53;3.42;;;2.00;;
29120;SDS011;16191;49.548;8.658;2023-03-19T09:39:20;7.10;;;2.30;;
29120;SDS011;16191;49.548;8.658;2023-03-19T09:44:36;7.25;;;2.30;;
29120;SDS011;16191;49.548;8.658;2023-03-19T09:58:13;6.03;;;2.58;;
29120;SDS011;16191;49.548;8.658;2023-03-19T10:00:43;6.38;;;2.72;;
29120;SDS011;16191;49.548;8.658;2023-03-19T10:17:19;4.75;;;2.25;;
29120;SDS011;16191;49.548;8.658;2023-03-19T10:22:45;9.65;;;2.42;;
29120;SDS011;16191;49.548;8.658;2023-03-19T10:25:23;5.40;;;2.65;;
29120;SDS011;16191;49.548;8.658;2023-03-19T10:28:00;5.18;;;2.55;;
29120;SDS011;16191;49.548;8.658;2023-03-19T10:30:36;5.43;;;2.22;;
29120;SDS011;16191;49.548;8.658;2023-03-19T10:35:56;4.53;;;2.30;;
29120;SDS011;16191;49.548;8.658;2023-03-19T10:38:27;5.65;;;2.33;;
29120;SDS011;16191;49.548;8.658;2023-03-19T10:43:42;7.55;;;2.65;;
29120;SDS011;16191;49.548;8.658;2023-03-19T10:46:17;7.45;;;2.60;;
29120;SDS011;16191;49.548;8.658;2023-03-19T10:48:45;5.88;;;1.92;;
29120;SDS011;16191;49.548;8.658;2023-03-19T10:51:13;6.85;;;1.90;;
29120;SDS011;16191;49.548;8.658;2023-03-19T10:53:42;5.35;;;2.30;;
29120;SDS011;16191;49.548;8.658;2023-03-19T10:58:54;5.40;;;1.75;;
29120;SDS011;16191;49.548;8.658;2023-03-19T11:01:41;3.15;;;1.67;;
29120;SDS011;16191;49.548;8.658;2023-03-19T11:04:20;5.70;;;1.80;;
29120;SDS011;16191;49.548;8.658;2023-03-19T11:06:53;3.42;;;1.90;;
29120;SDS011;16191;49.548;8.658;2023-03-19T11:09:28;7.20;;;2.10;;
29120;SDS011;16191;49.548;8.658;2023-03-19T11:12:06;3.92;;;1.80;;
29120;SDS011;16191;49.548;8.658;2023-03-19T11:14:34;3.65;;;1.90;;
29120;SDS011;16191;49.548;8.658;2023-03-19T11:19:48;5.57;;;1.88;;
29120;SDS011;16191;49.548;8.658;2023-03-19T11:25:14;5.03;;;1.92;;
29120;SDS011;16191;49.548;8.658;2023-03-19T11:27:56;4.07;;;1.88;;
29120;SDS011;16191;49.548;8.658;2023-03-19T11:33:43;4.82;;;2.20;;
29120;SDS011;16191;49.548;8.658;2023-03-19T12:01:14;5.70;;;2.30;;
29120;SDS011;16191;49.548;8.658;2023-03-19T12:07:27;3.30;;;1.88;;
29120;SDS011;16191;49.548;8.658;2023-03-19T12:12:53;5.13;;;2.22;;
29120;SDS011;16191;49.548;8.658;2023-03-19T12:23:12;7.68;;;1.98;;
29120;SDS011;16191;49.548;8.658;2023-03-19T12:26:06;4.15;;;1.88;;
29120;SDS011;16191;49.548;8.658;2023-03-19T12:37:07;6.00;;;2.40;;
29120;SDS011;16191;49.548;8.658;2023-03-19T12:39:42;5.68;;;2.20;;
29120;SDS011;16191;49.548;8.658;2023-03-19T12:42:16;6.43;;;2.03;;
29120;SDS011;16191;49.548;8.658;2023-03-19T12:47:37;8.95;;;2.58;;
29120;SDS011;16191;49.548;8.658;2023-03-19T12:50:05;2.10;;;1.48;;
29120;SDS011;16191;49.548;8.658;2023-03-19T12:52:41;3.13;;;1.95;;
29120;SDS011;16191;49.548;8.658;2023-03-19T12:55:16;4.60;;;2.05;;
29120;SDS011;16191;49.548;8.658;2023-03-19T12:57:47;3.85;;;2.00;;
29120;SDS011;16191;49.548;8.658;2023-03-19T13:00:33;6.75;;;1.95;;
29120;SDS011;16191;49.548;8.658;2023-03-19T13:03:27;5.25;;;2.15;;
29120;SDS011;16191;49.548;8.658;2023-03-19T13:06:18;4.22;;;1.92;;
29120;SDS011;16191;49.548;8.658;2023-03-19T13:11:34;2.78;;;1.90;;
29120;SDS011;16191;49.548;8.658;2023-03-19T13:14:09;9.63;;;2.40;;
29120;SDS011;16191;49.548;8.658;2023-03-19T13:16:55;6.30;;;2.60;;
29120;SDS011;16191;49.548;8.658;2023-03-19T13:19:45;6.57;;;2.40;;
29120;SDS011;16191;49.548;8.658;2023-03-19T13:22:18;3.95;;;1.95;;
29120;SDS011;16191;49.548;8.658;2023-03-19T13:24:47;4.75;;;1.63;;
29120;SDS011;16191;49.548;8.658;2023-03-19T13:27:50;3.90;;;2.13;;
29120;SDS011;16191;49.548;8.658;2023-03-19T13:30:19;4.70;;;2.17;;
29120;SDS011;16191;49.548;8.658;2023-03-19T13:32:49;4.63;;;2.33;;
29120;SDS011;16191;49.548;8.658;2023-03-19T13:38:24;4.57;;;2.53;;
29120;SDS011;16191;49.548;8.658;2023-03-19T13:40:53;6.53;;;3.20;;
29120;SDS011;16191;49.548;8.658;2023-03-19T13:43:38;9.65;;;2.30;;
29120;SDS011;16191;49.548;8.658;2023-03-19T13:48:48;6.13;;;2.42;;
29120;SDS011;16191;49.548;8.658;2023-03-19T13:56:18;7.38;;;3.20;;
29120;SDS011;16191;49.548;8.658;2023-03-19T14:01:42;11.68;;;2.47;;
29120;SDS011;16191;49.548;8.658;2023-03-19T14:06:52;3.90;;;2.60;;
29120;SDS011;16191;49.548;8.658;2023-03-19T14:14:41;6.03;;;2.88;;
29120;SDS011;16191;49.548;8.658;2023-03-19T14:17:15;5.13;;;2.50;;
29120;SDS011;16191;49.548;8.658;2023-03-19T14:19:50;5.68;;;2.17;;
29120;SDS011;16191;49.548;8.658;2023-03-19T14:25:18;7.18;;;1.85;;
29120;SDS011;16191;49.548;8.658;2023-03-19T14:27:50;3.95;;;1.48;;
29120;SDS011;16191;49.548;8.658;2023-03-19T14:32:55;3.17;;;1.60;;
29120;SDS011;16191;49.548;8.658;2023-03-19T14:35:25;1.83;;;1.40;;
29120;SDS011;16191;49.548;8.658;2023-03-19T14:37:52;3.28;;;1.55;;
29120;SDS011;16191;49.548;8.658;2023-03-19T14:43:06;2.63;;;1.40;;
29120;SDS011;16191;49.548;8.658;2023-03-19T14:46:03;3.20;;;1.60;;
29120;SDS011;16191;49.548;8.658;2023-03-19T14:56:54;5.03;;;1.70;;
29120;SDS011;16191;49.548;8.658;2023-03-19T14:59:21;3.55;;;1.85;;
29120;SDS011;16191;49.548;8.658;2023-03-19T15:01:49;2.90;;;1.60;;
29120;SDS011;16191;49.548;8.658;2023-03-19T15:04:19;2.95;;;1.70;;
29120;SDS011;16191;49.548;8.658;2023-03-19T15:06:56;3.47;;;1.75;;
29120;SDS011;16191;49.548;8.658;2023-03-19T15:09:30;2.08;;;1.38;;
29120;SDS011;16191;49.548;8.658;2023-03-19T15:18:07;2.42;;;1.30;;
29120;SDS011;16191;49.548;8.658;2023-03-19T15:20:37;2.35;;;1.33;;
29120;SDS011;16191;49.548;8.658;2023-03-19T15:23:20;3.10;;;1.83;;
29120;SDS011;16191;49.548;8.658;2023-03-19T15:25:54;2.45;;;1.65;;
29120;SDS011;16191;49.548;8.658;2023-03-19T15:28:27;3.88;;;1.40;;
29120;SDS011;16191;49.548;8.658;2023-03-19T15:31:02;2.97;;;1.25;;
29120;SDS011;16191;49.548;8.658;2023-03-19T15:33:50;2.65;;;1.20;;
29120;SDS011;16191;49.548;8.658;2023-03-19T15:36:21;1.60;;;1.23;;
29120;SDS011;16191;49.548;8.658;2023-03-19T15:38:53;1.95;;;1.40;;
29120;SDS011;16191;49.548;8.658;2023-03-19T15:41:26;2.38;;;1.40;;
29120;SDS011;16191;49.548;8.658;2023-03-19T15:43:55;2.15;;;1.25;;
29120;SDS011;16191;49.548;8.658;2023-03-19T15:46:24;3.00;;;1.42;;
29120;SDS011;16191;49.548;8.658;2023-03-19T15:48:56;1.70;;;1.30;;
29120;SDS011;16191;49.548;8.658;2023-03-19T15:51:30;1.92;;;1.45;;
29120;SDS011;16191;49.548;8.658;2023-03-19T15:54:01;1.95;;;1.30;;
29120;SDS011;16191;49.548;8.658;2023-03-19T15:56:29;5.20;;;1.52;;
29120;SDS011;16191;49.548;8.658;2023-03-19T15:58:57;4.97;;;1.77;;
29120;SDS011;16191;49.548;8.658;2023-03-19T16:01:25;9.70;;;1.33;;
29120;SDS011;16191;49.548;8.658;2023-03-19T16:04:00;3.75;;;1.38;;
29120;SDS011;16191;49.548;8.658;2023-03-19T16:06:36;1.88;;;1.17;;
29120;SDS011;16191;49.548;8.658;2023-03-19T16:11:59;1.80;;;1.33;;
29120;SDS011;16191;49.548;8.658;2023-03-19T16:17:08;3.25;;;1.52;;
29120;SDS011;16191;49.548;8.658;2023-03-19T16:19:38;3.15;;;1.38;;
29120;SDS011;16191;49.548;8.658;2023-03-19T16:22:20;3.67;;;1.20;;
29120;SDS011;16191;49.548;8.658;2023-03-19T16:24:48;2.35;;;1.35;;
29120;SDS011;16191;49.548;8.658;2023-03-19T16:27:18;2.80;;;1.33;;
29120;SDS011;16191;49.548;8.658;2023-03-19T16:29:47;2.65;;;1.23;;
29120;SDS011;16191;49.548;8.658;2023-03-19T16:32:22;2.90;;;1.42;;
29120;SDS011;16191;49.548;8.658;2023-03-19T16:37:46;3.22;;;1.35;;
29120;SDS011;16191;49.548;8.658;2023-03-19T16:42:41;2.15;;;1.10;;
29120;SDS011;16191;49.548;8.658;2023-03-19T16:45:25;4.20;;;1.30;;
29120;SDS011;16191;49.548;8.658;2023-03-19T16:47:55;3.70;;;1.55;;
29120;SDS011;16191;49.548;8.658;2023-03-19T16:50:28;4.07;;;1.57;;
29120;SDS011;16191;49.548;8.658;2023-03-19T16:52:58;3.90;;;1.90;;
29120;SDS011;16191;49.548;8.658;2023-03-19T16:55:27;3.42;;;1.60;;
29120;SDS011;16191;49.548;8.658;2023-03-19T16:58:01;3.75;;;1.63;;
29120;SDS011;16191;49.548;8.658;2023-03-19T17:00:31;3.67;;;1.55;;
29120;SDS011;16191;49.548;8.658;2023-03-19T17:02:58;6.70;;;2.17;;
29120;SDS011;16191;49.548;8.658;2023-03-19T17:05:26;2.97;;;1.35;;
29120;SDS011;16191;49.548;8.658;2023-03-19T17:07:54;4.57;;;1.95;;
29120;SDS011;16191;49.548;8.658;2023-03-19T17:10:21;2.33;;;1.70;;
29120;SDS011;16191;49.548;8.658;2023-03-19T17:12:52;4.97;;;1.90;;
29120;SDS011;16191;49.548;8.658;2023-03-19T17:15:25;2.95;;;1.60;;
29120;SDS011;16191;49.548;8.658;2023-03-19T17:17:54;4.95;;;1.50;;
29120;SDS011;16191;49.548;8.658;2023-03-19T17:20:22;5.82;;;1.90;;
29120;SDS011;16191;49.548;8.658;2023-03-19T17:22:52;3.67;;;2.03;;
29120;SDS011;16191;49.548;8.658;2023-03-19T17:25:19;2.58;;;1.55;;
29120;SDS011;16191;49.548;8.658;2023-03-19T17:27:45;2.83;;;1.88;;
29120;SDS011;16191;49.548;8.658;2023-03-19T17:30:12;2.15;;;1.38;;
29120;SDS011;16191;49.548;8.658;2023-03-19T17:32:40;4.03;;;1.65;;
29120;SDS011;16191;49.548;8.658;2023-03-19T17:35:20;4.32;;;1.80;;
29120;SDS011;16191;49.548;8.658;2023-03-19T17:37:47;5.18;;;2.00;;
29120;SDS011;16191;49.548;8.658;2023-03-19T17:40:19;2.95;;;1.60;;
29120;SDS011;16191;49.548;8.658;2023-03-19T17:42:48;3.10;;;1.80;;
29120;SDS011;16191;49.548;8.658;2023-03-19T17:45:16;5.93;;;2.20;;
29120;SDS011;16191;49.548;8.658;2023-03-19T17:47:49;2.80;;;1.85;;
29120;SDS011;16191;49.548;8.658;2023-03-19T17:50:19;4.50;;;2.25;;
29120;SDS011;16191;49.548;8.658;2023-03-19T17:52:52;4.32;;;2.15;;